Time;durP1;ratioP1;P1;durP2;ratioP2;P2;SDS_P1;SDS_P2;PMS_P1;PMS_P2;Temp;Humidity;BMP_temperature;BMP_pressure;BME280_temperature;BME280_humidity;BME280_pressure;Samples;Min_cycle;Max_cycle;Signal;HPM_P1;HPM_P2
2023/04/27 00:00:56;;;;;;;25.60;19.00;;;;;;;2.05;74.97;98007.10;106725;1277;22638;-83
2023/04/27 00:03:24;;;;;;;28.60;21.60;;;;;;;2.14;74.93;98003.30;106711;1277;22544;-83
2023/04/27 00:05:53;;;;;;;27.60;20.80;;;;;;;2.21;74.77;98003.00;106812;1277;22528;-83
2023/04/27 00:08:23;;;;;;;26.60;21.10;;;;;;;2.28;74.78;98001.89;106743;1277;25211;-81
2023/04/27 00:10:51;;;;;;;27.70;20.90;;;;;;;2.34;74.74;97998.35;106678;1277;22666;-82
2023/04/27 00:13:19;;;;;;;24.10;20.40;;;;;;;2.39;74.63;97995.50;106890;1273;22753;-81
2023/04/27 00:15:47;;;;;;;26.70;20.30;;;;;;;2.41;74.48;98000.43;106867;1277;22524;-81
2023/04/27 00:18:15;;;;;;;25.00;20.30;;;;;;;2.41;74.40;98002.11;106805;1277;25387;-83
2023/04/27 00:20:43;;;;;;;26.60;19.30;;;;;;;2.43;73.96;97995.25;106746;1269;22544;-81
2023/04/27 00:23:11;;;;;;;26.50;19.60;;;;;;;2.50;74.25;97998.02;106815;1277;25244;-82
2023/04/27 00:25:39;;;;;;;28.10;22.30;;;;;;;2.56;74.30;97996.00;106806;1277;22954;-82
2023/04/27 00:28:07;;;;;;;28.20;21.60;;;;;;;2.64;74.30;97997.10;106695;1277;22566;-84
2023/04/27 00:30:35;;;;;;;24.70;20.40;;;;;;;2.69;74.25;97996.67;107763;1255;22594;-82
2023/04/27 00:33:03;;;;;;;24.80;20.20;;;;;;;2.72;74.42;97994.00;107042;1277;24200;-82
2023/04/27 00:35:36;;;;;;;23.70;20.40;;;;;;;2.74;74.50;97995.89;106918;1277;22533;-84
2023/04/27 00:38:03;;;;;;;28.80;21.70;;;;;;;2.77;74.47;97994.35;106859;1277;24105;-81
2023/04/27 00:40:33;;;;;;;30.50;24.50;;;;;;;2.77;74.14;97996.47;106852;1269;22538;-81
2023/04/27 00:43:01;;;;;;;25.50;22.30;;;;;;;2.76;74.16;97992.58;106855;1277;25470;-82
2023/04/27 00:45:30;;;;;;;24.70;20.30;;;;;;;2.73;74.18;97994.98;106702;1277;25351;-81
2023/04/27 00:47:58;;;;;;;29.40;21.20;;;;;;;2.68;74.75;97995.50;107048;1277;22514;-81
2023/04/27 00:50:30;;;;;;;31.30;21.80;;;;;;;2.66;74.32;97999.02;107052;1277;25472;-82
2023/04/27 00:52:58;;;;;;;35.50;24.90;;;;;;;2.63;74.48;97995.05;106860;1277;24510;-83
2023/04/27 00:55:26;;;;;;;37.40;29.10;;;;;;;2.61;74.58;98000.71;106824;1277;24265;-83
2023/04/27 00:57:55;;;;;;;37.10;28.40;;;;;;;2.57;74.73;98001.45;106868;1277;22729;-84
2023/04/27 01:00:23;;;;;;;32.10;28.20;;;;;;;2.53;74.78;98001.77;106747;1277;24349;-85
2023/04/27 01:02:52;;;;;;;34.80;28.60;;;;;;;2.46;74.68;98000.55;106824;1277;22791;-84
2023/04/27 01:05:20;;;;;;;37.40;29.20;;;;;;;2.37;74.92;98001.70;106778;1277;22579;-85
2023/04/27 01:07:48;;;;;;;37.90;30.30;;;;;;;2.27;74.71;98005.44;106745;1277;22491;-84
2023/04/27 01:10:16;;;;;;;39.70;28.80;;;;;;;2.20;74.77;98006.97;107563;1277;22580;-84
2023/04/27 01:12:44;;;;;;;34.90;28.20;;;;;;;2.17;74.64;98007.98;108289;1277;22524;-83
2023/04/27 01:15:12;;;;;;;37.30;29.70;;;;;;;2.18;74.84;98011.08;108150;1277;24221;-83
2023/04/27 01:17:41;;;;;;;40.90;31.40;;;;;;;2.16;74.72;98013.13;108147;1277;22520;-84
2023/04/27 01:20:10;;;;;;;35.50;30.20;;;;;;;2.11;74.88;98010.70;108338;1277;22514;-84
2023/04/27 01:22:38;;;;;;;34.00;29.00;;;;;;;2.06;74.79;98012.91;108042;1277;24378;-84
2023/04/27 01:25:07;;;;;;;39.60;31.50;;;;;;;1.99;74.70;98011.63;107548;1277;22479;-82
2023/04/27 01:27:35;;;;;;;37.60;30.60;;;;;;;1.92;74.72;98016.45;107078;1277;22736;-83
2023/04/27 01:30:05;;;;;;;40.40;32.10;;;;;;;1.82;74.97;98017.45;106965;1277;22534;-83
2023/04/27 01:32:36;;;;;;;38.10;32.20;;;;;;;1.72;74.95;98016.90;106863;1277;22630;-83
2023/04/27 01:35:05;;;;;;;36.60;30.00;;;;;;;1.65;74.82;98015.23;107357;1277;25358;-84
2023/04/27 01:37:34;;;;;;;37.60;30.70;;;;;;;1.62;75.21;98015.86;108574;1277;23344;-83
2023/04/27 01:40:05;;;;;;;38.00;30.90;;;;;;;1.55;75.38;98020.67;107777;1277;22521;-83
2023/04/27 01:47:01;;;;;;;;;;;;;;;1.28;77.08;98025.64;106766;1277;24177;-82
2023/04/27 01:49:30;;;;;;;39.30;33.50;;;;;;;1.05;77.07;98027.08;106919;1277;25230;-83
2023/04/27 01:51:58;;;;;;;42.60;33.80;;;;;;;0.91;76.73;98027.83;106791;1277;25855;-83
2023/04/27 01:54:26;;;;;;;35.20;30.00;;;;;;;0.83;76.54;98031.50;106601;1277;24271;-82
2023/04/27 01:56:57;;;;;;;32.80;28.30;;;;;;;0.76;77.99;98033.05;106910;1277;22632;-81
2023/04/27 01:59:25;;;;;;;37.90;28.30;;;;;;;0.61;77.68;98032.74;106725;1277;25627;-85
2023/04/27 02:01:55;;;;;;;35.90;30.60;;;;;;;0.53;77.41;98026.76;106720;1277;24365;-82
2023/04/27 02:04:23;;;;;;;35.70;31.30;;;;;;;0.45;77.47;98026.23;106966;1277;22650;-82
2023/04/27 02:06:51;;;;;;;31.80;28.50;;;;;;;0.33;77.51;98028.89;106766;1277;22521;-82
2023/04/27 02:09:19;;;;;;;34.10;30.60;;;;;;;0.25;77.31;98033.02;106738;1277;22644;-84
2023/04/27 02:11:47;;;;;;;35.10;28.30;;;;;;;0.22;77.51;98032.27;106699;1277;25275;-83
2023/04/27 02:14:15;;;;;;;31.10;27.90;;;;;;;0.20;77.76;98029.74;106641;1278;22651;-83
2023/04/27 02:16:46;;;;;;;31.10;25.60;;;;;;;0.23;77.51;98029.81;106767;1277;22571;-82
2023/04/27 02:19:14;;;;;;;34.30;27.90;;;;;;;0.20;78.75;98029.52;106624;1277;22637;-82
2023/04/27 02:21:42;;;;;;;30.90;26.60;;;;;;;0.09;79.77;98036.36;106617;1277;22527;-82
2023/04/27 02:24:11;;;;;;;28.20;24.20;;;;;;;-0.01;81.00;98032.58;106585;1277;22549;-83
2023/04/27 02:26:39;;;;;;;26.50;23.60;;;;;;;-0.12;80.84;98035.06;106564;1277;22636;-82
2023/04/27 02:29:08;;;;;;;29.20;23.70;;;;;;;-0.21;80.88;98031.23;106600;1277;24215;-82
2023/04/27 02:31:36;;;;;;;30.60;26.10;;;;;;;-0.29;80.53;98031.70;106555;1277;23136;-82
2023/04/27 02:34:04;;;;;;;38.30;31.30;;;;;;;-0.35;80.32;98033.83;106561;1277;22531;-83
2023/04/27 02:36:32;;;;;;;43.80;37.80;;;;;;;-0.39;80.49;98034.09;106675;1277;22744;-83
2023/04/27 02:39:00;;;;;;;47.80;41.10;;;;;;;-0.43;80.31;98035.23;106508;1277;24276;-84
2023/04/27 02:41:32;;;;;;;37.00;33.20;;;;;;;-0.47;80.24;98033.79;106700;1277;22636;-83
2023/04/27 02:44:00;;;;;;;45.00;37.00;;;;;;;-0.52;81.33;98027.75;106529;1277;22644;-83
2023/04/27 02:46:28;;;;;;;46.80;41.60;;;;;;;-0.61;81.48;98027.98;106678;1277;24311;-84
2023/04/27 02:48:56;;;;;;;35.00;29.80;;;;;;;-0.65;81.72;98027.84;108149;1277;22763;-82
2023/04/27 02:51:24;;;;;;;29.00;22.00;;;;;;;-0.66;83.02;98029.71;107287;1277;22788;-82
2023/04/27 02:53:53;;;;;;;27.60;20.90;;;;;;;-0.65;83.19;98030.89;106658;1277;25221;-86
2023/04/27 02:56:21;;;;;;;26.10;19.80;;;;;;;-0.66;82.61;98030.66;106668;1277;22634;-84
2023/04/27 02:58:49;;;;;;;27.20;22.40;;;;;;;-0.68;83.73;98029.23;106760;1277;25402;-82
2023/04/27 03:01:17;;;;;;;25.50;20.50;;;;;;;-0.73;82.81;98037.46;106809;1277;22758;-83
2023/04/27 03:03:46;;;;;;;25.20;21.60;;;;;;;-0.75;82.59;98036.61;106678;1277;25304;-82
2023/04/27 03:06:15;;;;;;;23.90;19.00;;;;;;;-0.74;82.77;98036.20;106734;1277;22641;-84
2023/04/27 03:08:43;;;;;;;25.20;18.70;;;;;;;-0.71;83.32;98036.17;106647;1277;22522;-82
2023/04/27 03:11:11;;;;;;;22.40;19.30;;;;;;;-0.73;83.08;98039.94;106740;1277;24318;-81
2023/04/27 03:13:42;;;;;;;25.60;21.30;;;;;;;-0.73;83.01;98042.70;106625;1277;22760;-81
2023/04/27 03:16:10;;;;;;;23.80;20.80;;;;;;;-0.73;82.93;98048.41;106549;1277;23925;-81
2023/04/27 03:18:39;;;;;;;25.40;21.50;;;;;;;-0.78;83.96;98050.80;106683;1277;25325;-80
2023/04/27 03:21:08;;;;;;;23.20;19.60;;;;;;;-0.84;84.47;98051.88;106714;1277;25312;-80
2023/04/27 03:23:37;;;;;;;23.20;20.80;;;;;;;-0.84;84.32;98052.54;106698;1277;22732;-81
2023/04/27 03:26:10;;;;;;;25.30;20.20;;;;;;;-0.83;83.89;98051.58;106691;1277;23426;-82
2023/04/27 03:28:39;;;;;;;28.50;24.20;;;;;;;-0.77;83.32;98053.48;106632;1277;25475;-81
2023/04/27 03:31:09;;;;;;;31.00;27.80;;;;;;;-0.69;83.11;98055.73;106674;1277;23366;-80
2023/04/27 03:33:38;;;;;;;32.40;28.10;;;;;;;-0.59;83.13;98057.11;106651;1277;22761;-82
2023/04/27 03:36:09;;;;;;;27.00;24.10;;;;;;;-0.53;83.18;98060.83;106666;1277;22634;-86
2023/04/27 03:38:37;;;;;;;27.10;23.00;;;;;;;-0.55;83.38;98060.93;106827;1277;24406;-82
2023/04/27 03:41:05;;;;;;;32.50;29.40;;;;;;;-0.59;83.32;98060.17;106827;1277;22794;-83
2023/04/27 03:43:35;;;;;;;34.20;30.60;;;;;;;-0.64;83.67;98064.01;106951;1277;22789;-82
2023/04/27 03:46:03;;;;;;;26.70;23.80;;;;;;;-0.65;83.58;98065.77;107336;1275;22735;-83
2023/04/27 03:48:32;;;;;;;24.90;22.10;;;;;;;-0.60;83.80;98072.11;106908;1277;22690;-85
2023/04/27 03:51:00;;;;;;;26.70;23.50;;;;;;;-0.58;84.13;98074.59;106773;1277;24364;-84
2023/04/27 03:53:28;;;;;;;26.50;23.20;;;;;;;-0.54;84.50;98076.55;107000;1277;22541;-86
2023/04/27 03:55:56;;;;;;;26.20;23.60;;;;;;;-0.52;84.32;98074.45;106977;1275;25265;-83
2023/04/27 03:58:26;;;;;;;32.80;28.90;;;;;;;-0.51;85.24;98079.20;107495;1277;23958;-85
2023/04/27 04:01:21;;;;;;;32.60;29.00;;;;;;;-0.48;85.09;98079.70;109107;1277;25387;-82
2023/04/27 04:03:50;;;;;;;27.30;24.60;;;;;;;-0.39;84.67;98080.67;106793;1277;22536;-83
2023/04/27 04:06:18;;;;;;;28.40;25.50;;;;;;;-0.31;85.34;98083.17;106937;1277;22476;-82
2023/04/27 04:08:46;;;;;;;31.40;28.10;;;;;;;-0.25;85.06;98086.98;106832;1266;24296;-82
2023/04/27 04:11:14;;;;;;;32.40;29.10;;;;;;;-0.19;85.20;98085.52;106702;1278;22745;-82
2023/04/27 04:13:43;;;;;;;32.20;28.90;;;;;;;-0.15;85.08;98088.56;106762;1277;24475;-81
2023/04/27 04:16:11;;;;;;;31.70;28.40;;;;;;;-0.12;85.53;98093.33;106903;1277;25262;-79
2023/04/27 04:18:39;;;;;;;30.80;27.60;;;;;;;-0.11;85.59;98097.85;106651;1277;24365;-82
2023/04/27 04:21:10;;;;;;;37.40;33.10;;;;;;;-0.07;86.15;98096.11;106632;1277;22535;-79
2023/04/27 04:23:39;;;;;;;40.90;36.50;;;;;;;0.02;85.81;98097.91;106773;1277;25399;-79
2023/04/27 04:26:08;;;;;;;37.20;33.30;;;;;;;0.14;85.47;98094.18;106639;1277;24542;-78
2023/04/27 04:28:37;;;;;;;39.30;35.20;;;;;;;0.28;85.16;98097.92;106805;1277;22520;-79
2023/04/27 04:31:07;;;;;;;40.00;36.30;;;;;;;0.40;85.47;98099.04;106637;1277;22952;-79
2023/04/27 04:33:35;;;;;;;43.60;39.30;;;;;;;0.52;85.63;98101.76;106739;1277;22615;-79
2023/04/27 04:36:04;;;;;;;47.00;42.40;;;;;;;0.62;86.08;98098.76;106685;1277;22635;-79
2023/04/27 04:38:32;;;;;;;44.20;39.50;;;;;;;0.73;85.75;98101.12;106559;1277;22627;-84
2023/04/27 04:41:00;;;;;;;44.10;39.50;;;;;;;0.84;85.61;98101.33;106783;1277;22535;-84
2023/04/27 04:43:31;;;;;;;42.70;37.70;;;;;;;0.98;85.58;98098.94;107011;1277;22777;-85
2023/04/27 04:46:02;;;;;;;46.30;41.30;;;;;;;1.11;85.71;98102.45;106904;1277;22540;-84
2023/04/27 04:48:31;;;;;;;47.90;42.90;;;;;;;1.24;85.47;98103.06;106939;1277;25386;-84
2023/04/27 04:50:59;;;;;;;46.00;41.30;;;;;;;1.37;85.58;98107.84;106781;1277;25288;-84
2023/04/27 04:53:28;;;;;;;48.20;43.30;;;;;;;1.50;85.57;98106.45;106732;1277;22524;-82
2023/04/27 04:55:56;;;;;;;47.90;42.80;;;;;;;1.63;85.49;98108.19;106814;1275;22515;-85
2023/04/27 04:58:24;;;;;;;46.70;41.60;;;;;;;1.74;85.25;98114.27;106882;1277;22524;-84
2023/04/27 05:00:52;;;;;;;49.10;41.70;;;;;;;1.89;85.68;98117.14;106935;1277;22580;-83
2023/04/27 05:03:20;;;;;;;46.20;39.90;;;;;;;2.02;85.57;98115.53;106711;1277;22525;-82
2023/04/27 05:05:48;;;;;;;54.20;46.20;;;;;;;2.21;85.44;98114.91;106697;1277;22640;-83
2023/04/27 05:08:16;;;;;;;62.30;48.50;;;;;;;2.39;85.51;98114.42;107364;1277;22613;-84
2023/04/27 05:10:49;;;;;;;82.10;55.90;;;;;;;2.50;85.76;98113.17;107628;1277;22556;-82
2023/04/27 05:13:17;;;;;;;121.10;64.70;;;;;;;2.61;85.50;98116.76;107061;1277;22651;-83
2023/04/27 05:15:45;;;;;;;86.10;51.80;;;;;;;2.69;85.36;98116.04;106752;1277;22534;-85
2023/04/27 05:18:13;;;;;;;54.20;48.50;;;;;;;2.76;85.25;98118.65;106653;1277;25252;-84
2023/04/27 05:20:41;;;;;;;57.50;46.00;;;;;;;2.86;85.11;98121.56;106814;1277;22630;-84
2023/04/27 05:23:10;;;;;;;52.70;43.90;;;;;;;3.00;85.21;98117.52;106775;1277;22574;-86
2023/04/27 05:25:40;;;;;;;58.60;48.80;;;;;;;3.15;84.99;98121.14;106802;1277;24245;-84
2023/04/27 05:28:09;;;;;;;53.90;48.00;;;;;;;3.29;84.96;98127.30;106699;1277;24227;-77
2023/04/27 05:30:37;;;;;;;53.80;45.10;;;;;;;3.39;85.15;98126.21;106815;1277;22630;-79
2023/04/27 05:33:05;;;;;;;50.00;44.70;;;;;;;3.41;84.74;98131.56;106830;1277;25576;-79
2023/04/27 05:35:34;;;;;;;53.20;47.90;;;;;;;3.40;84.64;98135.16;106757;1277;24183;-78
2023/04/27 05:38:03;;;;;;;55.00;49.40;;;;;;;3.37;84.21;98135.71;106789;1277;23037;-82
2023/04/27 05:40:31;;;;;;;51.80;46.30;;;;;;;3.36;84.18;98139.38;106766;1277;24202;-81
2023/04/27 05:43:04;;;;;;;43.90;38.10;;;;;;;3.38;83.82;98144.20;106881;1277;25533;-83
2023/04/27 05:45:32;;;;;;;41.40;37.20;;;;;;;3.44;83.92;98145.98;106869;1277;22521;-82
2023/04/27 05:48:00;;;;;;;42.10;37.60;;;;;;;3.56;84.25;98148.13;107321;1277;180102;-84
2023/04/27 05:50:28;;;;;;;44.60;39.80;;;;;;;3.69;83.92;98151.52;106881;1277;25319;-82
2023/04/27 05:52:56;;;;;;;44.90;39.30;;;;;;;3.80;83.80;98154.43;106922;1277;24213;-79
2023/04/27 05:55:24;;;;;;;56.90;51.50;;;;;;;4.02;84.55;98156.45;106827;1277;22528;-81
2023/04/27 05:57:53;;;;;;;48.50;43.60;;;;;;;4.26;83.87;98156.33;106889;1277;25393;-80
2023/04/27 06:00:35;;;;;;;48.70;43.70;;;;;;;4.30;83.54;98156.80;106905;1277;24227;-80
2023/04/27 06:03:03;;;;;;;41.30;36.90;;;;;;;4.35;83.53;98160.21;106791;1277;22472;-82
2023/04/27 06:05:33;;;;;;;37.50;32.50;;;;;;;4.41;82.88;98155.48;106912;1277;22577;-82
2023/04/27 06:08:01;;;;;;;32.30;28.80;;;;;;;4.41;81.77;98156.48;106991;1277;22524;-81
2023/04/27 06:10:29;;;;;;;37.80;33.90;;;;;;;4.38;82.35;98157.51;107241;1277;22529;-81
2023/04/27 06:12:57;;;;;;;38.10;33.30;;;;;;;4.44;82.27;98152.98;107181;1275;24186;-81
2023/04/27 06:15:25;;;;;;;39.30;34.00;;;;;;;4.51;81.91;98152.41;107482;1254;22608;-81
2023/04/27 06:17:53;;;;;;;37.10;32.90;;;;;;;4.60;81.73;98156.86;107421;1277;22654;-84
2023/04/27 06:20:21;;;;;;;39.10;34.90;;;;;;;4.70;81.91;98160.00;107156;1277;22555;-81
2023/04/27 06:22:49;;;;;;;33.90;30.50;;;;;;;4.77;81.76;98158.13;107164;1277;24002;-81
2023/04/27 06:25:17;;;;;;;32.80;29.20;;;;;;;4.86;81.92;98158.31;106961;1277;25437;-81
2023/04/27 06:27:46;;;;;;;33.00;29.10;;;;;;;4.98;81.21;98160.82;106897;1277;22809;-83
2023/04/27 06:30:14;;;;;;;34.30;28.00;;;;;;;5.10;81.32;98162.98;106879;1277;22637;-82
2023/04/27 06:32:42;;;;;;;31.60;24.50;;;;;;;5.21;80.61;98167.33;106951;1277;22649;-81
2023/04/27 06:35:10;;;;;;;28.70;23.00;;;;;;;5.25;79.66;98164.95;106954;1277;23918;-83
2023/04/27 06:37:38;;;;;;;29.60;25.10;;;;;;;5.29;79.38;98169.52;106949;1277;22566;-82
2023/04/27 06:40:07;;;;;;;27.70;23.60;;;;;;;5.37;78.41;98168.55;106797;1277;22528;-83
2023/04/27 06:42:36;;;;;;;30.50;22.20;;;;;;;5.48;78.69;98171.39;106772;1277;25855;-82
2023/04/27 06:45:04;;;;;;;25.30;20.80;;;;;;;5.58;78.51;98169.42;106939;1277;25226;-80
2023/04/27 06:47:32;;;;;;;27.40;20.50;;;;;;;5.65;78.76;98169.09;106996;1277;25599;-83
2023/04/27 06:50:00;;;;;;;30.70;24.00;;;;;;;5.72;78.40;98177.84;106996;1277;22521;-82
2023/04/27 06:52:31;;;;;;;28.60;25.10;;;;;;;5.78;77.93;98174.77;106970;1277;22517;-81
2023/04/27 06:54:59;;;;;;;29.30;23.10;;;;;;;5.87;78.00;98178.66;107144;1277;22520;-81
2023/04/27 06:57:27;;;;;;;26.40;23.60;;;;;;;5.91;77.94;98173.64;106858;1277;22638;-82
2023/04/27 06:59:55;;;;;;;29.70;24.60;;;;;;;5.98;77.75;98174.83;106920;1277;25394;-80
2023/04/27 07:02:23;;;;;;;26.40;22.60;;;;;;;6.02;75.77;98178.42;106855;1277;22609;-82
2023/04/27 07:04:52;;;;;;;28.00;21.90;;;;;;;6.04;75.57;98173.71;106963;1277;24079;-82
2023/04/27 07:07:20;;;;;;;25.20;21.20;;;;;;;6.10;75.04;98172.13;106764;1277;25419;-82
2023/04/27 07:09:48;;;;;;;26.80;22.10;;;;;;;6.18;73.74;98172.91;106735;1275;25386;-79
2023/04/27 07:12:16;;;;;;;25.40;20.80;;;;;;;6.25;74.49;98173.47;106753;1277;22571;-80
2023/04/27 07:14:45;;;;;;;26.50;21.00;;;;;;;6.32;74.26;98173.17;106875;1277;22532;-79
2023/04/27 07:17:12;;;;;;;23.50;18.40;;;;;;;6.38;74.04;98175.64;106845;1277;22572;-79
2023/04/27 07:19:40;;;;;;;30.20;24.10;;;;;;;6.47;72.96;98175.88;106731;1277;22644;-82
2023/04/27 07:22:09;;;;;;;24.40;20.70;;;;;;;6.50;72.30;98182.73;106930;1277;22714;-80
2023/04/27 07:24:36;;;;;;;23.00;19.50;;;;;;;6.54;72.53;98178.35;106725;1266;24360;-80
2023/04/27 07:27:04;;;;;;;26.10;21.60;;;;;;;6.69;73.69;98176.88;106865;1277;25220;-79
2023/04/27 07:29:32;;;;;;;24.20;20.00;;;;;;;6.90;72.65;98179.55;106919;1277;22531;-81
2023/04/27 07:32:04;;;;;;;25.80;20.30;;;;;;;6.98;70.61;98184.27;106733;1277;22494;-81
2023/04/27 07:34:33;;;;;;;26.40;17.50;;;;;;;7.01;70.02;98181.60;106890;1277;22535;-80
2023/04/27 07:37:19;;;;;;;25.60;20.40;;;;;;;7.07;70.74;98175.55;106811;1277;22654;-82
2023/04/27 07:39:49;;;;;;;27.50;19.60;;;;;;;7.26;72.06;98175.70;106931;1277;23884;-79
2023/04/27 07:42:18;;;;;;;22.50;16.90;;;;;;;7.52;71.93;98171.99;106887;1277;22546;-81
2023/04/27 07:44:46;;;;;;;20.90;14.70;;;;;;;7.74;69.49;98168.56;106958;1277;25472;-80
2023/04/27 07:47:14;;;;;;;16.30;11.10;;;;;;;7.78;66.60;98170.80;107051;1277;22563;-80
2023/04/27 07:49:44;;;;;;;11.50;9.40;;;;;;;7.77;65.89;98172.24;107140;1277;24212;-80
2023/04/27 07:52:13;;;;;;;10.80;7.50;;;;;;;7.74;64.52;98172.31;106974;1277;24961;-83
2023/04/27 07:54:40;;;;;;;11.00;7.40;;;;;;;8.09;65.33;98172.60;106962;1277;22814;-84
2023/04/27 07:57:10;;;;;;;7.50;5.50;;;;;;;8.33;61.00;98174.10;106939;1277;22627;-83
2023/04/27 07:59:38;;;;;;;12.50;7.60;;;;;;;8.33;62.20;98168.73;107354;1277;22845;-83
2023/04/27 08:02:06;;;;;;;13.20;9.20;;;;;;;8.44;62.24;98167.56;107226;1278;23069;-84
2023/04/27 08:04:47;;;;;;;14.00;8.90;;;;;;;8.33;59.95;98175.23;106893;1277;22551;-82
2023/04/27 08:07:16;;;;;;;16.20;11.60;;;;;;;8.09;58.60;98178.73;106985;1277;25232;-83
2023/04/27 08:09:49;;;;;;;16.00;13.00;;;;;;;7.83;57.87;98172.66;106998;1277;24370;-80
2023/04/27 08:12:18;;;;;;;12.90;9.50;;;;;;;7.65;58.93;98186.82;107005;1277;23911;-82
2023/04/27 08:14:46;;;;;;;14.10;9.80;;;;;;;7.61;60.25;98183.23;106822;1277;25326;-82
2023/04/27 08:17:14;;;;;;;14.70;11.70;;;;;;;7.63;59.51;98188.33;106821;1277;24373;-81
2023/04/27 08:19:42;;;;;;;19.60;12.70;;;;;;;7.48;58.69;98196.19;106769;1277;22780;-83
2023/04/27 08:22:10;;;;;;;13.00;10.60;;;;;;;7.22;59.16;98199.11;106971;1277;23156;-82
2023/04/27 08:24:38;;;;;;;14.80;10.90;;;;;;;7.08;61.00;98194.34;107130;1277;22580;-85
2023/04/27 08:27:06;;;;;;;13.60;11.80;;;;;;;7.40;62.23;98192.72;107532;1277;25336;-84
2023/04/27 08:29:35;;;;;;;17.80;12.00;;;;;;;7.68;60.55;98194.22;107666;1277;22524;-83
2023/04/27 08:32:03;;;;;;;11.60;10.30;;;;;;;7.85;61.04;98189.45;107098;1277;25377;-79
2023/04/27 08:34:35;;;;;;;16.50;11.50;;;;;;;7.93;62.14;98189.30;106925;1277;25399;-80
2023/04/27 08:37:03;;;;;;;16.60;12.90;;;;;;;8.01;61.80;98189.01;106687;1277;23182;-80
2023/04/27 08:39:31;;;;;;;20.70;15.50;;;;;;;8.13;62.19;98188.80;107059;1277;22591;-82
2023/04/27 08:41:59;;;;;;;17.50;13.60;;;;;;;8.29;61.17;98188.56;106996;1277;22570;-78
2023/04/27 08:44:28;;;;;;;18.80;13.10;;;;;;;8.41;60.52;98189.48;107036;1277;22582;-82
2023/04/27 08:46:56;;;;;;;18.10;11.80;;;;;;;8.48;60.72;98195.73;106826;1277;25406;-80
2023/04/27 08:49:25;;;;;;;14.80;11.70;;;;;;;8.58;60.80;98190.31;107042;1277;25460;-84
2023/04/27 08:51:53;;;;;;;20.20;17.10;;;;;;;8.66;60.24;98192.20;108087;1262;25389;-79
2023/04/27 08:54:21;;;;;;;21.20;14.90;;;;;;;8.65;58.86;98189.73;107587;1272;22580;-76
2023/04/27 08:56:48;;;;;;;17.90;14.20;;;;;;;8.70;59.30;98187.86;106993;1277;25472;-77
2023/04/27 08:59:17;;;;;;;20.50;13.80;;;;;;;8.76;59.15;98188.10;107480;1277;22540;-78
2023/04/27 09:01:49;;;;;;;21.10;14.10;;;;;;;8.73;57.38;98191.93;107243;1277;22524;-78
2023/04/27 09:04:18;;;;;;;18.10;12.10;;;;;;;8.61;56.66;98193.72;107445;1277;22532;-80
2023/04/27 09:06:48;;;;;;;16.40;10.70;;;;;;;8.51;56.49;98197.02;106875;1277;25394;-79
2023/04/27 09:09:24;;;;;;;19.70;12.10;;;;;;;8.44;56.13;98198.33;106569;1277;22547;-80
2023/04/27 09:11:52;;;;;;;15.50;10.40;;;;;;;8.40;56.06;98193.95;106959;1277;25456;-78
2023/04/27 09:14:22;;;;;;;18.30;12.90;;;;;;;8.38;55.26;98193.64;106696;1277;24200;-78
2023/04/27 09:16:58;;;;;;;18.80;11.80;;;;;;;8.31;55.04;98196.60;107014;1277;22619;-78
2023/04/27 09:19:28;;;;;;;16.40;10.90;;;;;;;8.21;54.09;98190.48;106921;1277;24234;-78
2023/04/27 09:22:07;;;;;;;13.90;9.90;;;;;;;8.10;53.52;98191.39;106947;1277;22550;-80
2023/04/27 09:24:36;;;;;;;14.40;10.80;;;;;;;8.03;53.76;98188.56;106833;1277;22524;-78
2023/04/27 09:27:07;;;;;;;13.70;9.90;;;;;;;8.02;54.32;98188.73;106905;1277;25380;-82
2023/04/27 09:29:37;;;;;;;13.90;9.50;;;;;;;8.00;53.33;98190.09;106995;1277;24200;-81
2023/04/27 09:32:19;;;;;;;16.60;10.40;;;;;;;7.97;54.00;98187.03;106968;1275;22639;-79
2023/04/27 09:34:48;;;;;;;14.70;9.90;;;;;;;8.09;55.22;98183.71;106894;1277;24379;-80
2023/04/27 09:37:16;;;;;;;15.30;10.90;;;;;;;8.29;55.03;98186.95;106855;1277;24365;-80
2023/04/27 09:39:44;;;;;;;17.10;11.20;;;;;;;8.45;53.78;98182.75;106871;1277;25404;-79
2023/04/27 09:42:14;;;;;;;13.20;8.30;;;;;;;8.39;52.68;98195.77;107007;1277;22531;-80
2023/04/27 09:44:42;;;;;;;14.00;9.70;;;;;;;8.05;53.29;98201.23;107141;1278;24279;-79
2023/04/27 09:47:12;;;;;;;14.00;9.90;;;;;;;7.75;53.61;98199.94;106870;1277;22611;-81
2023/04/27 09:49:41;;;;;;;15.30;9.80;;;;;;;7.54;54.50;98201.11;107064;1276;22526;-82
2023/04/27 09:52:09;;;;;;;15.80;8.30;;;;;;;7.46;54.68;98202.63;106952;1277;25238;-79
2023/04/27 09:54:38;;;;;;;13.00;9.00;;;;;;;7.33;54.86;98202.64;106946;1277;22518;-80
2023/04/27 09:57:14;;;;;;;26.30;9.30;;;;;;;7.23;55.42;98200.81;106930;1277;22532;-79
2023/04/27 09:59:56;;;;;;;11.50;8.50;;;;;;;7.20;55.31;98196.76;106831;1277;22525;-80
2023/04/27 10:02:26;;;;;;;14.00;9.10;;;;;;;7.21;55.69;98195.63;106885;1274;25427;-79
2023/04/27 10:05:29;;;;;;;14.50;8.90;;;;;;;7.31;56.20;98190.59;106722;1277;25341;-79
2023/04/27 10:07:57;;;;;;;13.40;8.20;;;;;;;7.48;56.13;98189.70;106835;1278;25399;-79
2023/04/27 10:10:25;;;;;;;15.20;10.80;;;;;;;7.68;56.22;98190.14;106933;1277;25420;-81
2023/04/27 10:13:25;;;;;;;15.90;7.90;;;;;;;7.87;55.76;98186.85;106891;1271;22528;-82
2023/04/27 10:15:53;;;;;;;11.30;7.70;;;;;;;8.02;54.40;98188.84;106917;1277;23933;-79
2023/04/27 10:18:29;;;;;;;11.40;7.70;;;;;;;8.25;54.70;98189.22;107036;1267;25268;-81
2023/04/27 10:21:10;;;;;;;12.40;7.90;;;;;;;8.59;54.12;98188.37;106908;1277;22539;-81
2023/04/27 10:23:49;;;;;;;13.40;8.30;;;;;;;9.00;53.81;98182.42;106870;1277;24371;-79
2023/04/27 10:26:26;;;;;;;11.30;7.60;;;;;;;9.35;52.88;98178.80;106949;1267;22634;-79
2023/04/27 10:29:07;;;;;;;10.70;8.80;;;;;;;9.53;52.44;98174.80;106990;1277;24158;-80
2023/04/27 10:31:42;;;;;;;12.80;7.90;;;;;;;9.53;50.33;98180.49;106820;1277;23912;-78
2023/04/27 10:34:16;;;;;;;12.00;8.80;;;;;;;9.32;49.76;98186.08;106976;1277;22775;-79
2023/04/27 10:36:48;;;;;;;11.60;8.50;;;;;;;9.11;49.85;98184.31;106869;1277;23219;-80
2023/04/27 10:39:19;;;;;;;12.10;8.30;;;;;;;9.02;51.34;98181.12;106870;1277;25325;-80
2023/04/27 10:41:55;;;;;;;11.90;7.90;;;;;;;9.20;51.42;98185.44;107023;1277;22536;-77
2023/04/27 10:44:29;;;;;;;11.00;7.80;;;;;;;9.37;50.82;98187.06;106902;1257;25443;-79
2023/04/27 10:47:00;;;;;;;11.50;7.50;;;;;;;9.42;49.99;98186.26;106998;1277;22634;-81
2023/04/27 10:49:29;;;;;;;11.50;8.20;;;;;;;9.47;50.33;98185.14;106992;1277;23386;-81
2023/04/27 10:51:58;;;;;;;9.70;7.30;;;;;;;9.68;50.72;98184.01;107062;1277;23002;-81
2023/04/27 10:54:28;;;;;;;12.60;8.30;;;;;;;9.99;50.17;98182.42;106804;1277;23316;-80
2023/04/27 10:57:07;;;;;;;12.00;7.90;;;;;;;10.31;50.81;98176.65;106890;1277;25352;-82
2023/04/27 10:59:48;;;;;;;13.20;7.80;;;;;;;10.60;48.93;98184.62;106783;1277;22645;-78
2023/04/27 11:02:25;;;;;;;8.60;5.80;;;;;;;10.45;49.12;98177.11;107070;1277;25563;-79
2023/04/27 11:04:55;;;;;;;28.90;25.50;;;;;;;10.59;50.01;98174.81;106864;1277;24179;-80
2023/04/27 11:07:27;;;;;;;24.90;21.30;;;;;;;10.73;48.81;98175.59;106831;1277;25527;-83
2023/04/27 11:09:55;;;;;;;12.30;9.30;;;;;;;10.59;49.03;98178.80;107118;1271;22513;-82
2023/04/27 11:12:24;;;;;;;13.90;10.50;;;;;;;10.45;50.52;98181.05;107054;1277;25377;-79
2023/04/27 11:14:58;;;;;;;10.70;6.80;;;;;;;10.33;47.22;98195.69;107218;1277;22716;-78
2023/04/27 11:17:29;;;;;;;14.00;8.00;;;;;;;9.82;46.39;98201.39;106952;1277;22620;-78
2023/04/27 11:19:57;;;;;;;12.30;7.50;;;;;;;9.37;46.26;98205.83;107003;1277;22527;-79
2023/04/27 11:22:25;;;;;;;9.90;7.00;;;;;;;9.08;47.36;98207.09;107000;1277;25387;-80
2023/04/27 11:24:55;;;;;;;17.00;7.80;;;;;;;8.98;47.68;98200.20;106947;1277;25442;-81
2023/04/27 11:27:24;;;;;;;12.40;7.60;;;;;;;9.00;47.85;98202.05;106889;1277;22548;-81
2023/04/27 11:29:52;;;;;;;12.10;7.80;;;;;;;9.09;48.24;98199.66;107046;1277;24308;-77
2023/04/27 11:32:21;;;;;;;11.90;7.40;;;;;;;9.33;47.90;98196.30;107112;1277;25268;-79